Time;durP1;ratioP1;P1;durP2;ratioP2;P2;SDS_P1;SDS_P2;PMS_P1;PMS_P2;Temp;Humidity;BMP_temperature;BMP_pressure;BME280_temperature;BME280_humidity;BME280_pressure;Samples;Min_cycle;Max_cycle;Signal;HPM_P1;HPM_P2
2023/03/16 00:00:20;;;;;;;6.47;2.70;;;;;;;1.67;60.38;102072.34;7393179;19;20002;-62
2023/03/16 00:02:46;;;;;;;7.85;3.00;;;;;;;1.66;60.43;102077.59;7391612;19;19998;-62
2023/03/16 00:05:13;;;;;;;7.18;2.75;;;;;;;1.68;60.02;102075.81;7393092;19;20001;-60
2023/03/16 00:07:40;;;;;;;11.27;3.20;;;;;;;1.77;59.68;102075.59;7392371;19;20046;-61
2023/03/16 00:10:07;;;;;;;9.98;2.78;;;;;;;1.84;59.14;102078.94;7392882;19;20023;-61
2023/03/16 00:12:33;;;;;;;8.35;2.65;;;;;;;1.79;58.98;102079.03;7393555;19;20006;-62
2023/03/16 00:15:00;;;;;;;7.13;2.28;;;;;;;1.84;58.65;102074.53;7391066;19;20045;-61
2023/03/16 00:17:26;;;;;;;6.45;2.60;;;;;;;1.88;58.69;102072.72;7393316;19;20100;-61
2023/03/16 00:19:54;;;;;;;9.63;2.78;;;;;;;1.78;59.38;102073.84;7393459;19;20002;-61
2023/03/16 00:22:25;;;;;;;7.13;2.70;;;;;;;1.71;59.46;102069.66;7387903;19;20002;-63
2023/03/16 00:24:54;;;;;;;8.73;3.22;;;;;;;1.73;59.06;102073.94;7392968;19;20010;-62
2023/03/16 00:27:21;;;;;;;8.02;2.95;;;;;;;1.71;59.29;102072.28;7391561;19;20015;-61
2023/03/16 00:29:48;;;;;;;8.77;2.75;;;;;;;1.78;58.73;102071.22;7393438;19;20014;-62
2023/03/16 00:32:15;;;;;;;8.40;2.60;;;;;;;1.87;58.37;102064.00;7392324;19;20002;-62
2023/03/16 00:34:41;;;;;;;9.75;2.78;;;;;;;1.83;58.52;102075.44;7392272;19;20007;-61
2023/03/16 00:37:07;;;;;;;7.00;2.88;;;;;;;1.79;58.52;102063.31;7391761;19;20011;-62
2023/03/16 00:39:34;;;;;;;7.43;2.90;;;;;;;1.74;58.75;102066.94;7392979;19;20030;-62
2023/03/16 00:42:00;;;;;;;8.23;2.90;;;;;;;1.82;58.00;102072.88;7391471;19;20007;-62
2023/03/16 00:44:26;;;;;;;9.05;3.30;;;;;;;1.90;57.73;102069.16;7392235;19;20066;-62
2023/03/16 00:46:52;;;;;;;7.25;2.65;;;;;;;1.89;58.05;102064.84;7391548;19;20019;-63
2023/03/16 00:49:17;;;;;;;7.75;2.70;;;;;;;1.88;57.90;102059.59;7392923;19;20454;-62
2023/03/16 00:51:44;;;;;;;10.10;2.78;;;;;;;1.85;57.96;102057.94;7394181;19;20012;-61
2023/03/16 00:54:11;;;;;;;8.63;2.95;;;;;;;1.87;57.87;102069.22;7390257;19;20005;-60
2023/03/16 00:56:37;;;;;;;9.30;2.40;;;;;;;1.87;57.38;102056.13;7391807;19;19999;-63
2023/03/16 00:59:04;;;;;;;12.32;2.50;;;;;;;1.89;57.12;102053.47;7391635;19;20419;-61
2023/03/16 01:01:31;;;;;;;10.13;2.65;;;;;;;1.89;57.23;102049.09;7391269;19;20351;-61
2023/03/16 01:03:58;;;;;;;10.35;2.63;;;;;;;1.91;56.63;102049.06;7392151;19;20000;-61
2023/03/16 01:06:24;;;;;;;9.13;2.22;;;;;;;1.88;56.40;102062.22;7391792;19;20007;-62
2023/03/16 01:08:51;;;;;;;7.43;2.97;;;;;;;1.87;56.51;102057.91;7388411;19;20015;-62
2023/03/16 01:11:20;;;;;;;7.82;2.47;;;;;;;1.87;56.40;102058.75;7392318;19;20010;-61
2023/03/16 01:13:48;;;;;;;9.20;2.65;;;;;;;1.86;56.42;102057.03;7390880;19;20006;-62
2023/03/16 01:16:21;;;;;;;8.32;2.40;;;;;;;1.84;56.50;102055.34;7390988;19;20446;-61
2023/03/16 01:18:47;;;;;;;7.00;2.47;;;;;;;1.82;56.58;102051.91;7391310;19;20003;-61
2023/03/16 01:21:20;;;;;;;8.70;2.58;;;;;;;1.83;56.80;102051.88;7391057;19;20018;-61
2023/03/16 01:23:46;;;;;;;8.55;2.55;;;;;;;1.83;56.59;102051.00;7391069;19;20022;-62
2023/03/16 01:26:15;;;;;;;9.45;2.50;;;;;;;1.86;56.35;102051.78;7388419;19;20403;-62
2023/03/16 01:28:42;;;;;;;7.65;2.60;;;;;;;1.82;56.57;102037.06;7391083;19;20002;-61
2023/03/16 01:31:11;;;;;;;6.38;2.60;;;;;;;1.80;56.50;102035.34;7390411;19;20018;-61
2023/03/16 01:33:37;;;;;;;6.03;2.58;;;;;;;1.82;56.01;102038.81;7391682;19;20005;-61
2023/03/16 01:36:06;;;;;;;9.23;2.88;;;;;;;1.84;56.39;102039.63;7390024;19;20020;-62
2023/03/16 01:38:32;;;;;;;10.00;3.20;;;;;;;1.78;56.53;102039.78;7389766;19;20009;-62
2023/03/16 01:40:58;;;;;;;8.18;3.15;;;;;;;1.72;56.89;102032.06;7389933;19;20036;-62
2023/03/16 01:43:27;;;;;;;8.57;2.53;;;;;;;1.73;57.05;102034.66;7391765;19;20026;-62
2023/03/16 01:46:14;;;;;;;7.15;2.35;;;;;;;1.73;56.31;102032.03;7390152;19;20014;-62
2023/03/16 01:48:52;;;;;;;8.23;2.75;;;;;;;1.74;56.83;102028.53;7389053;19;20006;-62
2023/03/16 01:51:43;;;;;;;9.15;2.90;;;;;;;1.79;56.32;102023.16;7390011;19;20326;-61
2023/03/16 01:54:18;;;;;;;9.23;3.25;;;;;;;1.80;56.64;102030.13;7394566;19;20006;-61
2023/03/16 01:57:10;;;;;;;10.50;2.60;;;;;;;1.81;55.87;102024.84;7387778;19;20002;-61
2023/03/16 01:59:46;;;;;;;9.20;2.35;;;;;;;1.82;56.39;102018.72;7386127;19;20003;-61
2023/03/16 02:02:13;;;;;;;9.23;2.40;;;;;;;1.85;56.30;102016.03;7387842;19;20013;-61
2023/03/16 02:04:53;;;;;;;8.02;2.50;;;;;;;1.89;55.76;102027.25;7387959;19;20006;-61
2023/03/16 02:07:23;;;;;;;9.18;2.38;;;;;;;1.76;56.51;102013.63;7387220;19;20003;-61
2023/03/16 02:09:52;;;;;;;10.77;2.65;;;;;;;1.70;56.75;102008.53;7388027;19;20010;-62
2023/03/16 02:12:19;;;;;;;8.98;2.30;;;;;;;1.71;56.73;102007.66;7387933;19;19995;-62
2023/03/16 02:14:49;;;;;;;7.13;2.30;;;;;;;1.72;56.64;102001.50;7389302;19;20387;-61
2023/03/16 02:17:19;;;;;;;5.65;2.40;;;;;;;1.63;56.94;102001.75;7388647;19;20003;-62
2023/03/16 02:19:59;;;;;;;8.00;2.83;;;;;;;1.72;56.21;101996.25;7389880;19;20630;-61
2023/03/16 02:22:26;;;;;;;7.78;2.78;;;;;;;1.73;56.47;101992.72;7387335;19;20003;-62
2023/03/16 02:24:52;;;;;;;7.60;2.20;;;;;;;1.76;56.08;101992.66;7388476;19;19995;-61
2023/03/16 02:27:35;;;;;;;8.15;3.05;;;;;;;1.58;56.96;101980.88;7389259;19;20014;-62
2023/03/16 02:30:06;;;;;;;9.02;2.50;;;;;;;1.51;57.07;101979.34;7389811;19;20005;-61
2023/03/16 02:32:33;;;;;;;8.00;2.42;;;;;;;1.52;57.63;101982.81;7388176;19;19999;-61
2023/03/16 02:35:00;;;;;;;7.32;2.40;;;;;;;1.44;57.83;101982.13;7388800;19;20038;-62
2023/03/16 02:37:26;;;;;;;9.88;2.47;;;;;;;1.51;57.11;101983.69;7388695;19;20060;-61
2023/03/16 02:39:52;;;;;;;9.43;2.63;;;;;;;1.63;56.57;101984.25;7395946;19;19999;-62
2023/03/16 02:42:21;;;;;;;7.22;2.28;;;;;;;1.64;56.33;101988.59;7395780;19;19994;-61
2023/03/16 02:44:55;;;;;;;8.82;2.60;;;;;;;1.57;56.89;101984.41;7395235;19;20082;-61
2023/03/16 02:47:34;;;;;;;7.63;2.53;;;;;;;1.46;57.03;101975.09;7393835;19;20006;-62
2023/03/16 02:50:05;;;;;;;7.03;2.60;;;;;;;1.59;56.21;101974.75;7396966;19;20002;-62
2023/03/16 02:52:34;;;;;;;9.60;2.65;;;;;;;1.60;56.30;101967.75;7396896;19;20007;-61
2023/03/16 02:55:00;;;;;;;10.38;2.75;;;;;;;1.63;56.35;101973.78;7395799;19;19994;-61
2023/03/16 02:57:26;;;;;;;9.38;2.67;;;;;;;1.66;56.20;101967.59;7395870;19;20090;-61
2023/03/16 02:59:51;;;;;;;8.02;2.67;;;;;;;1.59;56.63;101973.91;7393794;19;20002;-61
2023/03/16 03:02:16;;;;;;;8.02;2.60;;;;;;;1.63;56.49;101968.53;7394400;19;19999;-62
2023/03/16 03:04:45;;;;;;;7.57;2.55;;;;;;;1.63;56.71;101973.78;7395547;19;20514;-61
2023/03/16 03:07:13;;;;;;;8.27;2.95;;;;;;;1.64;56.76;101980.72;7395433;19;20006;-62
2023/03/16 03:09:41;;;;;;;8.75;3.10;;;;;;;1.57;57.02;101975.69;7391629;19;20006;-60
2023/03/16 03:12:07;;;;;;;8.30;2.90;;;;;;;1.55;56.85;101982.72;7395039;19;19995;-61
2023/03/16 03:14:36;;;;;;;13.07;3.42;;;;;;;1.62;56.83;101979.03;7395810;19;20006;-61
2023/03/16 03:17:03;;;;;;;9.02;3.03;;;;;;;1.55;57.06;101975.75;7394011;19;20007;-61
2023/03/16 03:19:29;;;;;;;6.88;2.97;;;;;;;1.48;57.27;101974.16;7396079;19;20022;-60
2023/03/16 03:21:57;;;;;;;7.80;3.20;;;;;;;1.48;57.47;101976.78;7394195;19;20003;-61
2023/03/16 03:24:23;;;;;;;10.95;2.90;;;;;;;1.51;57.31;101967.97;7394588;19;20002;-61
2023/03/16 03:26:49;;;;;;;10.48;2.97;;;;;;;1.40;57.71;101965.63;7391797;19;20426;-61
2023/03/16 03:29:14;;;;;;;7.70;2.70;;;;;;;1.45;57.38;101969.00;7393015;19;20022;-62
2023/03/16 03:31:40;;;;;;;7.63;3.15;;;;;;;1.41;57.76;101973.44;7393199;19;19991;-61
2023/03/16 03:34:05;;;;;;;7.32;3.05;;;;;;;1.46;57.75;101970.72;7393331;19;20353;-62
2023/03/16 03:36:33;;;;;;;11.63;3.92;;;;;;;1.38;58.24;101967.41;7392671;19;19994;-61
2023/03/16 03:38:58;;;;;;;9.85;3.67;;;;;;;1.37;58.56;101965.72;7392592;19;20363;-61
2023/03/16 03:41:24;;;;;;;10.15;3.33;;;;;;;1.30;58.85;101964.13;7393973;19;20002;-62
2023/03/16 03:43:50;;;;;;;7.93;3.30;;;;;;;1.37;58.56;101968.31;7393740;19;20012;-61
2023/03/16 03:46:15;;;;;;;10.25;3.10;;;;;;;1.31;58.46;101964.09;7394622;19;20032;-61
2023/03/16 03:48:41;;;;;;;11.57;3.30;;;;;;;1.40;58.73;101963.03;7393624;19;19995;-61
2023/03/16 03:51:07;;;;;;;7.95;3.08;;;;;;;1.40;58.73;101960.41;7393047;19;19994;-62
2023/03/16 03:53:32;;;;;;;7.97;2.92;;;;;;;1.29;58.77;101963.28;7394264;19;19999;-61
2023/03/16 03:55:58;;;;;;;20.42;3.20;;;;;;;1.26;58.98;101967.72;7393717;19;20009;-61
2023/03/16 03:58:23;;;;;;;8.00;2.95;;;;;;;1.26;59.37;101963.34;7391363;19;19999;-61
2023/03/16 04:00:50;;;;;;;10.77;3.33;;;;;;;1.33;59.23;101962.31;7394552;19;20041;-62
2023/03/16 04:03:16;;;;;;;10.48;3.33;;;;;;;1.37;58.65;101963.09;7392301;19;19998;-61
2023/03/16 04:05:41;;;;;;;10.30;3.03;;;;;;;1.41;58.92;101962.13;7394445;19;20510;-61
2023/03/16 04:08:07;;;;;;;5.88;3.00;;;;;;;1.48;58.72;101970.69;7390505;19;20088;-62
2023/03/16 04:10:32;;;;;;;8.10;3.33;;;;;;;1.52;58.99;101965.34;7393008;19;19999;-62
2023/03/16 04:12:59;;;;;;;7.03;2.90;;;;;;;1.58;58.45;101974.78;7392880;19;20062;-61
2023/03/16 04:15:25;;;;;;;8.63;3.42;;;;;;;1.55;58.56;101970.50;7393144;19;20022;-61
2023/03/16 04:17:53;;;;;;;8.13;3.03;;;;;;;1.55;59.07;101967.00;7391661;19;20491;-62
2023/03/16 04:20:19;;;;;;;9.30;3.13;;;;;;;1.62;58.80;101972.03;7396943;19;20353;-62
2023/03/16 04:22:46;;;;;;;9.60;3.33;;;;;;;1.61;58.41;101966.84;7391419;19;20372;-63
2023/03/16 04:25:13;;;;;;;8.45;3.42;;;;;;;1.65;58.70;101956.25;7392161;19;19999;-63
2023/03/16 04:27:40;;;;;;;11.00;3.63;;;;;;;1.75;58.33;101959.50;7391756;19;20023;-63
2023/03/16 04:30:10;;;;;;;8.85;3.03;;;;;;;1.71;58.60;101947.41;7392908;19;20088;-62
2023/03/16 04:32:36;;;;;;;8.95;3.17;;;;;;;1.69;58.51;101946.56;7393698;19;20002;-62
2023/03/16 04:35:02;;;;;;;8.40;3.03;;;;;;;1.73;58.30;101948.19;7392093;19;20103;-63
2023/03/16 04:37:27;;;;;;;8.52;3.00;;;;;;;1.72;58.01;101943.00;7392215;19;20005;-62
2023/03/16 04:39:53;;;;;;;9.13;3.50;;;;;;;1.75;58.39;101943.78;7393139;19;20489;-62
2023/03/16 04:42:18;;;;;;;9.15;3.05;;;;;;;1.77;58.33;101946.38;7390557;19;19998;-62
2023/03/16 04:44:44;;;;;;;8.07;2.78;;;;;;;1.82;58.09;101945.34;7391627;19;20381;-62
2023/03/16 04:47:14;;;;;;;10.20;3.38;;;;;;;1.80;58.09;101935.81;7391048;19;19995;-62
2023/03/16 04:49:40;;;;;;;9.38;3.13;;;;;;;1.78;57.81;101935.84;7392252;19;20371;-62
2023/03/16 04:52:06;;;;;;;9.35;2.97;;;;;;;1.80;58.27;101931.41;7391788;19;20022;-62
2023/03/16 04:54:32;;;;;;;9.40;3.20;;;;;;;1.71;58.20;101926.44;7391831;19;19995;-62
2023/03/16 04:56:59;;;;;;;9.57;2.92;;;;;;;1.75;57.91;101916.75;7391443;19;20007;-62
2023/03/16 04:59:25;;;;;;;9.15;3.22;;;;;;;1.79;57.93;101926.25;7391969;19;19995;-62
2023/03/16 05:01:51;;;;;;;8.57;2.97;;;;;;;1.74;57.86;101920.25;7391060;19;20098;-62
2023/03/16 05:04:16;;;;;;;6.85;2.80;;;;;;;1.69;57.90;101928.22;7391706;19;20002;-62
2023/03/16 05:06:42;;;;;;;9.48;2.92;;;;;;;1.73;57.77;101918.53;7390631;19;20003;-63
2023/03/16 05:09:08;;;;;;;9.60;3.30;;;;;;;1.84;57.37;101911.25;7389920;19;20078;-61
2023/03/16 05:11:35;;;;;;;10.77;3.08;;;;;;;1.84;57.33;101912.09;7390264;19;20021;-61
2023/03/16 05:14:03;;;;;;;6.90;2.88;;;;;;;1.86;56.91;101906.84;7391865;19;20018;-61
2023/03/16 05:16:29;;;;;;;7.03;2.60;;;;;;;1.81;57.04;101904.31;7389026;19;19994;-61
2023/03/16 05:18:59;;;;;;;7.68;3.15;;;;;;;1.80;57.27;101914.84;7390052;19;20474;-60
2023/03/16 05:21:25;;;;;;;7.78;3.28;;;;;;;1.75;57.28;101921.97;7390957;19;20377;-61
2023/03/16 05:23:51;;;;;;;11.15;3.40;;;;;;;1.76;57.60;101907.97;7391388;19;20030;-61
2023/03/16 05:26:17;;;;;;;7.50;3.08;;;;;;;1.74;57.65;101913.25;7390608;19;19991;-61
2023/03/16 05:28:43;;;;;;;9.20;3.42;;;;;;;1.71;57.59;101915.09;7391861;19;20002;-60
2023/03/16 05:31:09;;;;;;;8.23;2.70;;;;;;;1.79;57.59;101910.53;7391778;19;20002;-60
2023/03/16 05:33:35;;;;;;;9.95;3.38;;;;;;;1.82;57.47;101915.69;7391748;19;20102;-62
2023/03/16 05:36:01;;;;;;;8.75;3.28;;;;;;;1.82;57.79;101919.16;7390220;19;19994;-61
2023/03/16 05:38:28;;;;;;;9.43;3.05;;;;;;;1.82;57.84;101916.53;7389206;19;20002;-61
2023/03/16 05:40:56;;;;;;;8.93;2.90;;;;;;;1.82;58.27;101913.06;7389054;19;19994;-61
2023/03/16 05:43:22;;;;;;;11.50;3.70;;;;;;;1.69;58.54;101906.41;7391478;19;20010;-59
2023/03/16 05:45:47;;;;;;;10.60;2.88;;;;;;;1.76;58.37;101910.59;7389951;19;19999;-59
2023/03/16 05:48:13;;;;;;;9.93;3.50;;;;;;;1.78;58.66;101907.03;7387342;19;20011;-58
2023/03/16 05:50:40;;;;;;;14.88;3.45;;;;;;;1.78;58.61;101906.19;7390765;19;19999;-59
2023/03/16 05:53:07;;;;;;;7.65;3.00;;;;;;;1.77;58.45;101902.69;7389282;19;20002;-59
2023/03/16 05:55:33;;;;;;;7.65;3.17;;;;;;;1.72;58.93;101901.94;7388116;19;19998;-59
2023/03/16 05:57:59;;;;;;;11.65;3.15;;;;;;;1.72;58.67;101901.94;7390498;19;20005;-59
2023/03/16 06:00:26;;;;;;;8.57;2.95;;;;;;;1.86;58.22;101902.44;7390196;19;19994;-59
2023/03/16 06:02:52;;;;;;;8.27;2.95;;;;;;;1.86;58.17;101902.44;7387171;19;20066;-58
2023/03/16 06:05:20;;;;;;;6.57;2.67;;;;;;;1.91;58.02;101904.94;7389881;19;19999;-58
2023/03/16 06:07:46;;;;;;;9.10;3.20;;;;;;;1.95;57.61;101900.47;7390365;19;20050;-58
2023/03/16 06:10:13;;;;;;;7.97;3.08;;;;;;;1.88;57.84;101908.50;7386361;19;20021;-59
2023/03/16 06:12:40;;;;;;;8.68;3.05;;;;;;;1.97;57.88;101896.91;7391644;19;20006;-59
2023/03/16 06:15:07;;;;;;;8.07;2.75;;;;;;;2.06;57.70;101899.28;7396726;19;20475;-58
2023/03/16 06:17:36;;;;;;;7.78;2.60;;;;;;;2.08;57.59;101904.47;7396102;19;20006;-58
2023/03/16 06:20:09;;;;;;;8.63;2.97;;;;;;;2.11;57.49;101907.84;7397877;19;20003;-59
2023/03/16 06:22:35;;;;;;;9.90;3.45;;;;;;;2.13;57.33;101913.06;7395541;19;20116;-60
2023/03/16 06:25:00;;;;;;;8.90;2.92;;;;;;;2.18;57.22;101915.56;7396373;19;20471;-59
2023/03/16 06:27:26;;;;;;;9.40;2.95;;;;;;;2.24;57.05;101910.16;7396243;19;20352;-59
2023/03/16 06:29:51;;;;;;;10.13;2.70;;;;;;;2.27;56.95;101929.25;7397154;19;19999;-59
2023/03/16 06:32:17;;;;;;;9.25;2.83;;;;;;;2.28;56.98;101935.38;7397693;19;20014;-60
2023/03/16 06:34:42;;;;;;;5.90;2.47;;;;;;;2.31;56.81;101930.03;7396821;19;20348;-59
2023/03/16 06:37:08;;;;;;;10.45;2.92;;;;;;;2.34;56.82;101933.41;7396749;19;20344;-59
2023/03/16 06:39:40;;;;;;;9.07;3.10;;;;;;;2.40;56.91;101941.13;7397189;19;20007;-59
2023/03/16 06:42:06;;;;;;;8.15;3.03;;;;;;;2.44;56.40;101934.03;7394809;19;20042;-59
2023/03/16 06:44:31;;;;;;;11.85;2.70;;;;;;;2.51;56.14;101932.94;7395980;19;20007;-58
2023/03/16 06:46:57;;;;;;;8.35;2.65;;;;;;;2.48;56.40;101938.28;7396137;19;20007;-60
2023/03/16 06:49:23;;;;;;;10.93;2.88;;;;;;;2.60;56.10;101927.41;7397387;19;20014;-59
2023/03/16 06:51:48;;;;;;;7.95;2.42;;;;;;;2.56;56.17;101922.31;7396596;19;20006;-58
2023/03/16 06:54:14;;;;;;;8.45;2.70;;;;;;;2.61;56.24;101933.50;7395462;19;20364;-60
2023/03/16 06:56:39;;;;;;;7.70;2.47;;;;;;;2.67;55.78;101935.09;7394883;19;20026;-60
2023/03/16 06:59:05;;;;;;;9.52;2.90;;;;;;;2.67;55.62;101933.34;7397042;19;19999;-59
2023/03/16 07:01:30;;;;;;;9.98;3.00;;;;;;;2.64;55.75;101931.66;7394749;19;20496;-59
2023/03/16 07:03:56;;;;;;;8.68;2.90;;;;;;;2.57;56.27;101934.50;7392132;19;20007;-59
2023/03/16 07:06:21;;;;;;;7.63;2.85;;;;;;;2.71;56.07;101931.50;7395621;19;20009;-59
2023/03/16 07:08:47;;;;;;;6.43;2.38;;;;;;;2.71;56.21;101926.25;7394559;19;20636;-60
2023/03/16 07:11:13;;;;;;;10.35;2.80;;;;;;;2.74;55.94;101924.38;7395418;19;20012;-60
2023/03/16 07:13:40;;;;;;;7.60;2.80;;;;;;;2.79;55.45;101934.72;7396180;19;20002;-60
2023/03/16 07:16:06;;;;;;;12.18;3.03;;;;;;;2.75;55.95;101928.72;7394938;19;19998;-60
2023/03/16 07:18:31;;;;;;;10.43;3.35;;;;;;;2.93;55.51;101931.69;7393619;19;20006;-60
2023/03/16 07:20:57;;;;;;;8.85;2.65;;;;;;;2.99;55.30;101924.47;7395626;19;20466;-60
2023/03/16 07:23:23;;;;;;;10.57;3.10;;;;;;;2.97;55.79;101930.69;7395259;19;20015;-60
2023/03/16 07:25:50;;;;;;;10.20;2.63;;;;;;;2.94;55.58;101934.25;7390769;19;19999;-60
2023/03/16 07:28:19;;;;;;;9.35;2.88;;;;;;;2.82;56.27;101934.66;7393974;19;20002;-60
2023/03/16 07:30:45;;;;;;;11.50;2.70;;;;;;;2.92;56.09;101936.06;7396035;19;20129;-60
2023/03/16 07:33:11;;;;;;;6.90;3.00;;;;;;;2.84;56.30;101928.41;7395421;19;20021;-60
2023/03/16 07:35:37;;;;;;;8.70;2.53;;;;;;;3.06;55.79;101933.88;7392804;19;20006;-59
2023/03/16 07:38:03;;;;;;;6.70;2.70;;;;;;;3.04;56.01;101940.09;7393878;19;20322;-60
2023/03/16 07:40:28;;;;;;;8.80;2.60;;;;;;;3.11;55.89;101938.97;7394982;19;19999;-60
2023/03/16 07:42:57;;;;;;;11.38;2.80;;;;;;;3.19;55.73;101942.22;7392868;19;20355;-59
2023/03/16 07:45:22;;;;;;;8.05;2.58;;;;;;;3.17;55.78;101938.78;7394067;19;19991;-60
2023/03/16 07:47:48;;;;;;;10.52;3.05;;;;;;;3.22;55.51;101936.84;7393815;19;19995;-60
2023/03/16 07:50:15;;;;;;;11.27;2.85;;;;;;;3.23;55.52;101943.00;7393315;19;20423;-59
2023/03/16 07:52:41;;;;;;;8.15;2.42;;;;;;;3.23;55.94;101935.97;7394218;19;20029;-59
2023/03/16 07:55:07;;;;;;;8.82;3.40;;;;;;;3.35;55.40;101935.56;7393577;19;20003;-60
2023/03/16 07:57:33;;;;;;;8.77;2.70;;;;;;;3.36;55.48;101928.53;7392711;19;20005;-58
2023/03/16 07:59:58;;;;;;;7.80;3.20;;;;;;;3.47;55.12;101936.94;7394098;19;20467;-59
2023/03/16 08:02:24;;;;;;;6.95;3.00;;;;;;;3.59;55.03;101936.50;7393389;19;20009;-59
2023/03/16 08:04:50;;;;;;;8.02;3.10;;;;;;;3.69;54.77;101921.28;7393362;19;20475;-59
2023/03/16 08:07:16;;;;;;;7.50;2.60;;;;;;;3.81;54.63;101920.00;7393233;19;20003;-59
2023/03/16 08:09:42;;;;;;;10.73;3.40;;;;;;;3.92;53.91;101928.41;7392209;19;20010;-59
2023/03/16 08:12:08;;;;;;;10.40;2.70;;;;;;;3.85;54.16;101940.88;7394223;19;20021;-59
2023/03/16 08:14:35;;;;;;;8.57;2.83;;;;;;;4.01;53.94;101938.59;7393638;19;20370;-58
2023/03/16 08:17:01;;;;;;;8.15;2.65;;;;;;;4.13;53.12;101933.81;7392898;19;20015;-60
2023/03/16 08:19:27;;;;;;;7.97;2.65;;;;;;;4.05;53.64;101934.94;7393158;19;20538;-59
2023/03/16 08:21:53;;;;;;;7.47;2.47;;;;;;;4.16;53.38;101944.22;7393022;19;20003;-60
2023/03/16 08:24:18;;;;;;;8.00;2.80;;;;;;;4.17;53.18;101953.81;7391961;19;20013;-60
2023/03/16 08:26:44;;;;;;;7.03;2.80;;;;;;;4.06;53.74;101948.94;7392679;19;20026;-60
2023/03/16 08:29:10;;;;;;;6.95;2.63;;;;;;;4.14;53.56;101946.88;7391338;19;19998;-60
2023/03/16 08:31:36;;;;;;;8.73;3.40;;;;;;;4.29;53.58;101951.59;7392789;19;20019;-60
2023/03/16 08:34:02;;;;;;;6.32;2.90;;;;;;;4.33;53.13;101947.06;7393381;19;20439;-60
2023/03/16 08:36:29;;;;;;;8.70;2.42;;;;;;;4.40;53.14;101945.09;7390843;19;20065;-59
2023/03/16 08:38:55;;;;;;;10.15;3.08;;;;;;;4.44;52.76;101931.75;7393748;19;19999;-59
2023/03/16 08:41:21;;;;;;;8.18;2.75;;;;;;;4.33;53.11;101944.44;7392325;19;20003;-60
2023/03/16 08:43:47;;;;;;;7.35;2.83;;;;;;;4.44;52.71;101936.16;7392564;19;19999;-60
2023/03/16 08:46:13;;;;;;;10.57;2.83;;;;;;;4.50;52.71;101941.22;7392215;19;20002;-60
2023/03/16 08:48:40;;;;;;;7.65;2.63;;;;;;;4.58;52.21;101939.13;7391254;19;20339;-59
2023/03/16 08:51:06;;;;;;;6.25;2.65;;;;;;;4.51;52.17;101943.78;7392213;19;20002;-60
2023/03/16 08:53:32;;;;;;;9.15;3.03;;;;;;;4.50;51.94;101944.69;7392478;19;19999;-59
2023/03/16 08:56:08;;;;;;;8.35;2.92;;;;;;;4.59;51.80;101930.31;7391897;19;20018;-59
2023/03/16 08:58:35;;;;;;;8.02;3.08;;;;;;;4.82;51.75;101926.81;7390467;19;20019;-58
2023/03/16 09:01:02;;;;;;;7.75;2.90;;;;;;;4.95;51.14;101922.78;7392725;19;20006;-59
2023/03/16 09:03:29;;;;;;;7.10;2.90;;;;;;;4.80;51.14;101926.88;7392119;19;19995;-59
2023/03/16 09:06:01;;;;;;;6.10;2.50;;;;;;;5.00;50.64;101917.31;7391441;19;20002;-60
2023/03/16 09:08:28;;;;;;;7.72;2.80;;;;;;;4.97;50.92;101923.56;7390169;19;20010;-61
2023/03/16 09:11:07;;;;;;;7.43;2.55;;;;;;;5.05;50.25;101920.63;7390161;19;20338;-59
2023/03/16 09:13:35;;;;;;;10.05;4.15;;;;;;;5.26;50.26;101924.19;7391525;19;20002;-60
2023/03/16 09:16:00;;;;;;;9.43;2.72;;;;;;;5.34;50.00;101914.19;7390356;19;19998;-59
2023/03/16 09:18:26;;;;;;;7.20;2.40;;;;;;;5.39;49.65;101911.34;7390709;19;20062;-60
2023/03/16 09:20:57;;;;;;;7.88;2.50;;;;;;;5.34;49.37;101919.44;7391366;19;19999;-59
2023/03/16 09:23:23;;;;;;;11.75;2.95;;;;;;;5.52;49.24;101910.78;7391150;19;20006;-61
2023/03/16 09:25:49;;;;;;;5.75;2.33;;;;;;;5.50;49.47;101917.88;7391759;19;20003;-60
2023/03/16 09:28:16;;;;;;;11.23;2.55;;;;;;;5.65;49.32;101918.16;7390064;19;20002;-59
2023/03/16 09:30:49;;;;;;;8.43;2.72;;;;;;;5.67;48.25;101917.19;7391023;19;20002;-60
2023/03/16 09:33:14;;;;;;;7.95;2.50;;;;;;;5.51;48.38;101902.91;7391086;19;20031;-59
2023/03/16 09:35:40;;;;;;;11.43;2.70;;;;;;;5.60;47.92;101906.97;7388708;19;20333;-59
2023/03/16 09:38:06;;;;;;;6.10;2.20;;;;;;;5.63;47.51;101904.16;7389814;19;20459;-60
2023/03/16 09:40:32;;;;;;;10.60;2.78;;;;;;;5.68;47.27;101902.22;7391433;19;20660;-59
2023/03/16 09:43:16;;;;;;;8.40;2.45;;;;;;;5.75;47.30;101914.22;7389983;19;20039;-60
2023/03/16 09:45:47;;;;;;;7.53;2.30;;;;;;;5.77;47.74;101901.81;7389105;19;20003;-59
2023/03/16 09:48:15;;;;;;;5.65;2.40;;;;;;;5.72;47.71;101912.56;7386472;19;20012;-59
2023/03/16 09:50:42;;;;;;;7.80;2.40;;;;;;;5.68;47.59;101899.59;7390547;19;20003;-60
2023/03/16 09:53:32;;;;;;;6.00;2.08;;;;;;;5.84;46.43;101905.91;7390425;19;20007;-59
2023/03/16 09:59:38;;;;;;;7.72;2.40;;;;;;;5.89;45.99;101900.41;7390543;19;20003;-61
2023/03/16 10:02:35;;;;;;;5.43;2.08;;;;;;;5.94;46.05;101896.66;7387641;19;20002;-59
2023/03/16 10:05:10;;;;;;;7.25;1.98;;;;;;;6.05;46.12;101894.41;7390551;19;20002;-60
2023/03/16 10:08:19;;;;;;;5.35;2.08;;;;;;;6.28;46.38;101895.16;7388933;19;20002;-60
2023/03/16 10:11:05;;;;;;;6.85;2.20;;;;;;;6.39;45.10;101897.31;7387764;19;20014;-62
2023/03/16 10:13:50;;;;;;;6.05;2.20;;;;;;;6.26;45.88;101886.44;7390736;19;20021;-61
2023/03/16 10:16:21;;;;;;;9.02;2.33;;;;;;;6.14;46.11;101895.75;7390187;19;20455;-61
2023/03/16 10:19:07;;;;;;;6.45;2.28;;;;;;;6.11;45.02;101900.31;7388299;19;20002;-61
2023/03/16 10:21:38;;;;;;;8.38;2.30;;;;;;;6.13;46.24;101887.91;7389025;19;20013;-60
2023/03/16 10:24:15;;;;;;;8.23;2.60;;;;;;;6.34;45.48;101884.28;7389542;19;20003;-59
2023/03/16 10:26:47;;;;;;;5.43;2.20;;;;;;;6.57;45.53;101877.97;7389376;19;20002;-59
2023/03/16 10:29:13;;;;;;;5.78;2.20;;;;;;;6.52;45.57;101878.19;7389479;19;20066;-60
2023/03/16 10:31:40;;;;;;;6.38;2.10;;;;;;;6.65;45.54;101872.31;7390411;19;20028;-59
2023/03/16 10:34:07;;;;;;;3.63;1.80;;;;;;;6.75;45.57;101861.25;7388631;19;19998;-60
2023/03/16 10:36:35;;;;;;;7.35;2.22;;;;;;;6.68;45.33;101865.13;7388768;19;20019;-60
2023/03/16 10:39:12;;;;;;;6.18;2.50;;;;;;;6.57;44.60;101859.50;7389037;19;20018;-60
2023/03/16 10:41:58;;;;;;;6.00;2.25;;;;;;;6.43;44.72;101864.56;7389042;19;19995;-60
2023/03/16 10:44:25;;;;;;;8.45;2.30;;;;;;;6.55;46.13;101856.09;7388081;19;20009;-59
2023/03/16 10:46:57;;;;;;;4.88;2.10;;;;;;;6.70;45.44;101859.75;7388468;19;19998;-59
2023/03/16 10:49:26;;;;;;;7.97;2.38;;;;;;;6.61;45.38;101853.13;7388865;19;20037;-59
2023/03/16 10:52:11;;;;;;;6.88;2.30;;;;;;;6.63;44.84;101866.28;7386963;19;20107;-59
2023/03/16 10:54:39;;;;;;;6.65;2.35;;;;;;;6.65;45.04;101873.19;7388385;19;20033;-59
2023/03/16 10:57:28;;;;;;;7.30;2.20;;;;;;;6.58;44.98;101850.63;7388217;19;20042;-60
2023/03/16 10:59:59;;;;;;;5.35;2.22;;;;;;;6.46;45.26;101854.72;7395258;19;20012;-60
2023/03/16 11:02:31;;;;;;;5.55;2.40;;;;;;;6.59;45.11;101855.00;7394688;19;20028;-60
2023/03/16 11:04:57;;;;;;;5.40;2.22;;;;;;;6.71;45.15;101848.28;7395824;19;19994;-61
2023/03/16 11:07:23;;;;;;;4.72;2.20;;;;;;;6.99;44.64;101853.91;7395334;19;20010;-59
2023/03/16 11:09:54;;;;;;;6.25;2.08;;;;;;;7.19;44.42;101849.41;7393627;19;20027;-59
2023/03/16 11:12:29;;;;;;;5.15;2.15;;;;;;;7.22;44.46;101838.69;7397101;19;20014;-59
2023/03/16 11:15:11;;;;;;;5.65;2.10;;;;;;;7.23;43.74;101846.56;7394834;19;20003;-59
2023/03/16 11:17:43;;;;;;;4.38;2.10;;;;;;;7.36;44.00;101845.94;7394663;19;19999;-60
2023/03/16 11:20:16;;;;;;;7.43;2.30;;;;;;;7.26;43.58;101840.25;7396190;19;20023;-60
2023/03/16 11:22:47;;;;;;;6.32;2.15;;;;;;;7.12;43.69;101837.44;7393546;19;20098;-59
2023/03/16 11:25:36;;;;;;;4.00;1.98;;;;;;;7.15;43.17;101827.56;7394359;19;20020;-59
2023/03/16 11:28:10;;;;;;;5.70;2.10;;;;;;;7.33;44.13;101846.94;7393006;19;19998;-59
2023/03/16 11:30:40;;;;;;;5.47;2.25;;;;;;;7.15;44.05;101832.84;7396372;19;20037;-60
2023/03/16 11:33:12;;;;;;;6.88;2.33;;;;;;;7.31;43.83;101822.41;7394561;19;20006;-60
2023/03/16 11:36:04;;;;;;;7.10;2.10;;;;;;;7.34;43.93;101835.44;7394936;19;20003;-61
2023/03/16 11:38:45;;;;;;;5.40;2.03;;;;;;;7.21;43.70;101815.84;7391706;19;20331;-59
2023/03/16 11:41:20;;;;;;;6.82;2.50;;;;;;;7.36;44.11;101803.66;7394777;19;20021;-60